createdAt,value
2017-10-08T00:02:23.000Z,73.6
2017-10-08T00:19:09.000Z,73.6
2017-10-08T00:35:55.000Z,73.2
2017-10-08T00:52:40.000Z,73.2
2017-10-08T01:09:25.000Z,73.2
2017-10-08T01:26:10.000Z,73.2
2017-10-08T01:42:56.000Z,73.2
2017-10-08T01:59:41.000Z,73.2
2017-10-08T02:16:26.000Z,73.2
2017-10-08T02:33:11.000Z,73.2
2017-10-08T02:49:57.000Z,73.2
2017-10-08T03:06:43.000Z,73.2
2017-10-08T03:23:28.000Z,73.2
2017-10-08T03:40:13.000Z,73.2
2017-10-08T03:56:58.000Z,73.2
2017-10-08T04:13:43.000Z,73.2
2017-10-08T04:30:28.000Z,73.2
2017-10-08T04:47:14.000Z,72.4
2017-10-08T05:03:59.000Z,72.4
2017-10-08T05:20:44.000Z,72.8
2017-10-08T05:37:29.000Z,72.8
2017-10-08T05:54:14.000Z,72
2017-10-08T06:11:00.000Z,72.4
2017-10-08T06:27:46.000Z,72.4
2017-10-08T06:44:31.000Z,72.4
2017-10-08T07:01:16.000Z,72
2017-10-08T07:18:02.000Z,72
2017-10-08T07:34:48.000Z,72
2017-10-08T07:51:33.000Z,71.6
2017-10-08T08:08:19.000Z,71.6
2017-10-08T08:25:05.000Z,72
2017-10-08T08:41:52.000Z,72.4
2017-10-08T08:58:38.000Z,72
2017-10-08T09:15:25.000Z,72
2017-10-08T09:32:12.000Z,71.6
2017-10-08T09:48:59.000Z,71.2
2017-10-08T10:05:46.000Z,71.2
2017-10-08T10:22:33.000Z,71.2
2017-10-08T10:39:20.000Z,70.8
2017-10-08T10:56:06.000Z,70.4
2017-10-08T11:12:54.000Z,70.8
2017-10-08T11:29:41.000Z,70.4
2017-10-08T11:46:29.000Z,70
2017-10-08T12:03:16.000Z,69.6
2017-10-08T12:20:05.000Z,69.6
2017-10-08T12:36:53.000Z,69.6
2017-10-08T12:53:40.000Z,70.4
2017-10-08T13:10:28.000Z,70.4
2017-10-08T13:27:15.000Z,70.4
2017-10-08T13:44:03.000Z,70.8
2017-10-08T14:00:51.000Z,70.8
2017-10-08T14:17:39.000Z,70.8
2017-10-08T14:34:27.000Z,70.8
2017-10-08T14:51:14.000Z,70.8
2017-10-08T15:08:02.000Z,71.2
2017-10-08T15:24:49.000Z,71.6
2017-10-08T15:41:38.000Z,72
2017-10-08T15:58:25.000Z,72.4
2017-10-08T16:15:13.000Z,72.4
2017-10-08T16:32:01.000Z,72.8
2017-10-08T16:48:48.000Z,73.2
2017-10-08T17:05:36.000Z,73.6
2017-10-08T17:22:23.000Z,73.6
2017-10-08T17:39:11.000Z,74
2017-10-08T17:55:59.000Z,74
2017-10-08T18:29:34.000Z,74
2017-10-08T18:46:22.000Z,74
2017-10-08T19:03:09.000Z,74
2017-10-08T19:19:55.000Z,74.4
2017-10-08T19:36:42.000Z,74.4
2017-10-08T19:53:28.000Z,74.4
2017-10-08T20:10:15.000Z,74.4
2017-10-08T20:27:01.000Z,74.8
2017-10-08T20:43:48.000Z,74.8
2017-10-08T21:00:34.000Z,74.8
2017-10-08T21:17:20.000Z,74.4
2017-10-08T21:34:06.000Z,74.8
2017-10-08T21:50:53.000Z,74.8
2017-10-08T22:07:38.000Z,74.8
2017-10-08T22:24:24.000Z,74.8
2017-10-08T22:41:10.000Z,74.4
2017-10-08T22:57:56.000Z,74.8
2017-10-08T23:14:42.000Z,74.4
2017-10-08T23:31:27.000Z,74.4
2017-10-08T23:48:12.000Z,74
